createdAt,value
2019-01-14T00:07:50.753Z,27.69
2019-01-14T00:27:52.646Z,26.57
2019-01-14T00:47:54.349Z,22.58
2019-01-14T01:07:53.896Z,21.10
2019-01-14T01:28:03.386Z,32.11
2019-01-14T01:48:12.868Z,15.13
2019-01-14T02:08:24.625Z,12.02
2019-01-14T02:28:24.201Z,15.74
2019-01-14T02:48:33.727Z,13.63
2019-01-14T03:08:43.213Z,14.59
2019-01-14T03:28:52.794Z,21.72
2019-01-14T03:49:00.844Z,14.37
2019-01-14T04:09:13.325Z,12.61
2019-01-14T04:29:12.817Z,24.25
2019-01-14T04:49:26.937Z,37.26
2019-01-14T05:09:31.008Z,29.59
2019-01-14T05:29:30.558Z,33.95
2019-01-14T05:49:40.082Z,32.48
2019-01-14T06:09:49.671Z,20.34
2019-01-14T06:29:59.245Z,42.47
2019-01-14T06:50:08.784Z,25.69
2019-01-14T07:10:18.355Z,22.98
2019-01-14T07:30:27.785Z,29.02
2019-01-14T07:50:37.285Z,28.13
2019-01-14T08:10:46.740Z,19.07
2019-01-14T08:30:56.448Z,14.33
2019-01-14T08:51:05.806Z,20.85
2019-01-14T09:11:15.335Z,19.12
2019-01-14T09:31:27.173Z,42.11
2019-01-14T09:51:26.764Z,44.96
2019-01-14T10:11:38.536Z,67.25
2019-01-14T10:31:38.146Z,34.83
2019-01-14T11:32:04.786Z,13.61
2019-01-14T11:52:18.928Z,19.15
2019-01-14T12:12:23.304Z,9.47
2019-01-14T12:32:22.806Z,17.67
2019-01-14T12:52:32.296Z,13.85
2019-01-14T13:12:41.741Z,28.20
2019-01-14T13:32:51.279Z,17.49
2019-01-14T13:53:09.429Z,15.75
2019-01-14T14:13:07.714Z,17.88
2019-01-14T14:33:17.217Z,6.83
2019-01-14T14:53:35.147Z,4.78
2019-01-14T15:13:34.548Z,3.21
2019-01-14T15:33:51.707Z,2.06
2019-01-14T15:53:56.809Z,1.66
2019-01-14T16:14:01.734Z,1.94
2019-01-14T16:34:06.605Z,1.91
2019-01-14T16:54:11.802Z,2.18
2019-01-14T17:14:16.747Z,2.05
2019-01-14T17:34:20.566Z,1.58
2019-01-14T18:14:33.904Z,2.09
2019-01-14T18:34:38.853Z,3.43
2019-01-14T18:54:44.098Z,2.22
2019-01-14T19:14:51.146Z,1.51
2019-01-14T19:34:57.538Z,2.84
2019-01-14T19:55:02.956Z,2.34
2019-01-14T20:15:07.872Z,2.30
2019-01-14T20:35:09.707Z,3.99
2019-01-14T20:55:09.187Z,3.09
2019-01-14T21:15:20.894Z,4.20
2019-01-14T21:35:20.426Z,6.22
2019-01-14T21:55:32.276Z,3.23
2019-01-14T22:15:31.931Z,3.24
2019-01-14T22:35:41.251Z,4.22
2019-01-14T22:55:50.700Z,3.02
2019-01-14T23:16:00.225Z,4.67
2019-01-14T23:36:09.790Z,4.71
2019-01-14T23:56:20.185Z,6.82
